Oribe Lozano

Olheiro - Club America
24 Set 2028
Domingo
Processo

Personalidade

Adaptabilidade (3) Ambição (14) Controvérsia (15) Lealdade (1) Pressão (2) Profissionalismo (17) Espírito Esportivo (8) Temperamento (11)

Perfil

Estilo de Treinamento Democrático
Licença Nacional B
Determinação 12
Gestão de Pessoas 12
Motivação 6
Disciplina 15
Satisfação no Trabalho
100%
Fadiga
0%
Função Olheiro
Salário 81.1K p/s
Contrato 14.03.2029

Desempenho

Comportamento Bom
Eficácia do Treinamento
49%
Desenvolvimento do Jogador
35%
Prevenção de Lesões
70%
Implementação Tática
60%

Eventos Recentes

Avaliou um jogador agora
Participou de uma reunião de recrutamento agora
Participou de uma reunião de recrutamento agora
Recomendou um alvo de transferência agora
Recomendou um alvo de transferência agora
Avaliou um jogador agora
Avaliou um jogador agora
Avaliou um jogador agora

Monitorando agora

257
Jogador Clube Status Habilidade Confiança Observado Última observação Último voto
Nuno Moreira Vasco da Gama Ativo 123 / 137 40% 3 23.09.2028 -
Telasco Segovia Inter Miami CF Ativo 146 / 135 40% 1 23.09.2028 -
Martín Ojeda Orlando City Ativo 147 / 137 40% 1 23.09.2028 -
Antony Portland Timbers Ativo 146 / 143 40% 2 22.09.2028 -
Kevin Zenón Boca Juniors Ativo 136 / 144 40% 2 22.09.2028 -
Ryan Gauld Vancouver Whitecaps Ativo 130 / 140 40% 1 22.09.2028 -
Fran García Betis Ativo 161 / 156 40% 2 21.09.2028 -
Uriel Antuna Dinamo Moscow Ativo 139 / 130 40% 1 21.09.2028 -
Santiago Murillo Atletico Nacional Ativo 123 / 146 40% 2 20.09.2028 -
Hamzat Ojediran Colorado Rapids Ativo 134 / 131 40% 3 20.09.2028 -
Luca Langoni Columbus Crew Ativo 133 / 129 40% 2 20.09.2028 -
Gérson Cruzeiro Ativo 152 / 151 40% 1 20.09.2028 -
Luis Sinisterra Cruzeiro Ativo 135 / 148 40% 1 20.09.2028 -
Mauricio Amaro Atlanta United FC Ativo 124 / 133 40% 1 20.09.2028 -
Allan Saint-Maximin Charlotte Football Club Ativo 145 / 135 40% 2 18.09.2028 -
Samuel Lino Flamengo Ativo 150 / 146 40% 1 18.09.2028 -
Riqui Puig CF Montreal Ativo 150 / 137 40% 1 18.09.2028 -
Bitello Universidad de Chile Ativo 144 / 137 40% 2 17.09.2028 -
Caio Vidal Deportivo Pereira Ativo 147 / 138 40% 1 17.09.2028 -
Oussama Idrissi Malmo FF Ativo 135 / 126 40% 2 16.09.2028 -
Toni Fruk Talleres Ativo 142 / 137 40% 2 16.09.2028 -
Christian Kashima Antlers Ativo 124 / 149 40% 1 15.09.2028 -
Bojan Kovačević Cádiz Ativo 137 / 142 40% 2 14.09.2028 -
Markus Karlsson Hammarby Ativo 130 / 117 40% 1 14.09.2028 -
Jonathan Bamba Chicago Fire Ativo 128 / 137 40% 1 14.09.2028 -
Erick Pulga Bahia Ativo 135 / 121 40% 5 13.09.2028 -
Leandro Andrade Chicago Fire Ativo 143 / 136 40% 3 13.09.2028 -
Ritsu Doan Gamba Osaka Ativo 146 / 135 40% 1 13.09.2028 -
Camilo Martinez Cortulua Ativo 142 / 126 40% 2 12.09.2028 -
Izan Merino Málaga Ativo 142 / 132 40% 1 12.09.2028 -
Breno Bidon Corinthians Ativo 139 / 144 40% 1 12.09.2028 -
Shuto Nakano Sanfrecce Hiroshima Ativo 144 / 129 40% 1 10.09.2028 -
Santiago Sosa Yung Defensa y Justicia Ativo 120 / 118 40% 1 10.09.2028 -
Fabricio Corbalán Gimnasia La Plata Ativo 112 / 126 40% 1 10.09.2028 -
Mario García Racing Santander Ativo 136 / 134 40% 1 10.09.2028 -
Alexey Miranchuk Atlanta United FC Ativo 144 / 145 40% 2 07.09.2028 -
Joshua Rawlins Melbourne Victory Ativo 128 / 127 40% 2 07.09.2028 -
Lyle Foster Rosenborg Ativo 145 / 135 40% 1 07.09.2028 -
Andrés Gómez Vasco da Gama Ativo 144 / 133 40% 3 05.09.2028 -
Adrien Truffert Flamengo Ativo 167 / 153 40% 1 05.09.2028 -
Riku Yamane Yokohama F. Marinos Ativo 151 / 133 40% 1 05.09.2028 -
Tobías Ramírez River Plate Ativo 133 / 146 40% 2 04.09.2028 -
Agustín Giay Palmeiras Ativo 148 / 129 40% 1 04.09.2028 -
Liel Abada Inter Miami CF Ativo 148 / 140 40% 1 04.09.2028 -
Pape Guèye Villarreal Ativo 163 / 164 40% 1 04.09.2028 -
Juan José Arias Real Salt Lake Ativo 124 / 120 40% 1 01.09.2028 -
Santiago Esquivel Banfield Ativo 115 / 126 40% 1 01.09.2028 -
Jozhua Vertrouwd Rayo Vallecano Ativo 133 / 134 40% 1 30.08.2028 -
Moussa N'Diaye Al Nasr Ativo 125 / 120 40% 1 30.08.2028 -
Dean Huijsen Las Palmas Ativo 148 / 162 40% 1 29.08.2028 -
Igor Serrote Al Ain Ativo 143 / 137 40% 1 29.08.2028 -
Alejo Córdoba Tigre Ativo 111 / 128 40% 1 29.08.2028 -
Ignacio Perruzzi San Lorenzo Ativo 129 / 130 40% 1 28.08.2028 -
Abdoulkarim Traoré Al Ain Ativo 135 / 138 40% 1 28.08.2028 -
Jonathan De Irastorza Independiente Ativo 134 / 138 40% 1 28.08.2028 -
Mbekezeli Mbokazi Chicago Fire Ativo 133 / 140 40% 1 26.08.2028 -
Thiago Silvero Vélez Ativo 132 / 141 40% 1 26.08.2028 -
Pedro de la Vega Columbus Crew Ativo 142 / 139 40% 2 25.08.2028 -
Marius Marin Al Nasr Perdido 136 / 146 40% 1 25.08.2028 -
Talles Magno New York City Ativo 145 / 129 40% 1 25.08.2028 -
Marquinhos APOEL Ativo 142 / 141 40% 2 22.08.2028 -
Zakaria El Ouahdi Hamburger SV Ativo 143 / 140 40% 1 22.08.2028 -
Musa Barrow ES Setif Ativo 135 / 146 40% 1 22.08.2028 -
Guille Rosas Boca Juniors Ativo 139 / 155 40% 1 20.08.2028 -
Tommaso Barbieri Cremonese Ativo 139 / 137 40% 1 20.08.2028 -
Che Adams Torino Ativo 141 / 147 40% 1 20.08.2028 -
Jayden Addai Bari Ativo 149 / 138 40% 2 19.08.2028 -
Faustino Anjorin Hellas Verona Ativo 137 / 132 40% 1 19.08.2028 -
Antoine Hainaut Venezia Ativo 143 / 132 40% 1 19.08.2028 -
Exequiel Palacios Lazio Ativo 161 / 159 40% 1 18.08.2028 -
Gonzalo Plata Nacional Ativo 153 / 150 40% 1 18.08.2028 -
Tommaso Berti Cesena Ativo 143 / 134 40% 1 17.08.2028 -
Alessio Zerbin Frosinone Ativo 138 / 134 40% 1 17.08.2028 -
Tomáš Suslov Hellas Verona Ativo 139 / 134 40% 1 17.08.2028 -
Gaspar Gijón Ativo 151 / 144 40% 6 16.08.2028 -
Pablo Fornals Betis Ativo 154 / 147 40% 1 16.08.2028 -
Alfon Sevilla Ativo 153 / 146 40% 1 16.08.2028 -
Hugo Álvarez Celta Ativo 154 / 151 40% 3 14.08.2028 -
Manu Fuster Las Palmas Ativo 140 / 136 40% 4 14.08.2028 -
Martim Neto Elche Ativo 138 / 140 40% 2 14.08.2028 -
Javi Ontiveros Cádiz Ativo 144 / 136 40% 2 13.08.2028 -
Arnaut Danjuma Deportivo La Coruña Ativo 148 / 153 40% 2 13.08.2028 -
Donny van de Beek Girona Ativo 150 / 144 40% 2 12.08.2028 -
Oriol Rey Levante Ativo 131 / 135 40% 1 12.08.2028 -
Santi Comesaña Villarreal Ativo 161 / 152 40% 1 12.08.2028 -
Álvaro Fidalgo Betis Ativo 154 / 144 40% 2 11.08.2028 -
Jorge De Frutos Rayo Vallecano Ativo 158 / 145 40% 2 10.08.2028 -
Giovani Lo Celso Betis Ativo 155 / 155 40% 1 10.08.2028 -
Julien Ponceau Valladolid Ativo 139 / 131 40% 1 10.08.2028 -
Iván Martín Racing Santander Ativo 151 / 147 40% 2 09.08.2028 -
Pablo Martínez Málaga Ativo 138 / 137 40% 1 09.08.2028 -
Marcus Tavernier Bournemouth Ativo 148 / 145 40% 1 08.08.2028 -
Ilias Chair Queens Park Rangers Ativo 134 / 143 40% 1 08.08.2028 -
Facundo Torres Millonarios Ativo 157 / 153 40% 2 07.08.2028 -
Riki Deportivo La Coruña Ativo 135 / 140 40% 1 07.08.2028 -
Marvin Park Las Palmas Ativo 148 / 143 40% 1 06.08.2028 -
Pedro Díaz Rayo Vallecano Ativo 150 / 148 40% 1 06.08.2028 -
Callum Brittain Middlesbrough Ativo 144 / 139 40% 2 05.08.2028 -
Demarai Gray Birmingham Ativo 146 / 134 40% 2 02.08.2028 -
Andrey Santos Bolton Wanderers Ativo 149 / 157 40% 1 02.08.2028 -
Curro Burgos Ativo 143 / 144 40% 2 01.08.2028 -
Vitaly Janelt Derby County Ativo 149 / 148 40% 2 31.07.2028 -
James Justin Leeds United Ativo 145 / 145 40% 2 31.07.2028 -
Jhon Solís Birmingham Ativo 145 / 138 40% 1 30.07.2028 -
Enric Franquesa Leganés Ativo 144 / 143 40% 1 30.07.2028 -
Adrià Pedrosa Sevilla Ativo 150 / 136 40% 1 28.07.2028 -
Edu Expósito Espanyol Ativo 141 / 141 40% 1 25.07.2028 -
Hwang Hee-Chan Wolverhampton Ativo 144 / 133 40% 1 25.07.2028 -
Sorba Thomas Stoke City Ativo 146 / 141 40% 1 24.07.2028 -
Jason Knight Bristol City Ativo 139 / 136 40% 1 24.07.2028 -
Carlos Moreno Pachuca Perdido 139 / 135 65% 1 10.07.2028 -
Carlos Alcaraz Stoke City Ativo 161 / 159 40% 4 30.06.2028 -
Brais Méndez RC Lens Ativo 157 / 161 40% 1 30.06.2028 -
Fran Beltrán Girona Ativo 150 / 143 40% 1 30.06.2028 -
Alfredo Morelos Pachuca Ativo 117 / 119 65% 1 19.06.2028 Aprovar
Mawuli Mensah Ceuta Ativo 117 / 119 40% 1 19.06.2028 -
Lamare Bogarde Reading Ativo 137 / 142 40% 1 19.06.2028 -
Carlos Acevedo Santos Laguna Perdido 133 / 137 65% 1 12.06.2028 -
Lucas Di Yorio Santos Laguna Ativo 128 / 109 65% 1 03.06.2028 Aprovar
Diego Barbosa Toluca Perdido 128 / 122 65% 1 02.06.2028 Aprovar
Jon Morcillo Almería Ativo 148 / 130 40% 3 01.06.2028 -
Maroan Sannadi Athletic Bilbao Ativo 137 / 144 40% 1 01.06.2028 -
Isaac Romero Sevilla Ativo 151 / 152 40% 1 01.06.2028 -
David Mella Deportivo La Coruña Ativo 133 / 139 40% 6 27.05.2028 -
Jofre Carreras Espanyol Ativo 146 / 148 40% 5 26.05.2028 -
Buba Sangaré Elche Ativo 131 / 132 40% 2 26.05.2028 -
Jesús Areso Athletic Bilbao Ativo 147 / 152 40% 1 26.05.2028 -
Hervin Goyes Deportivo Pasto Ativo 106 / 104 40% 1 26.05.2028 -
Jan Bürger Northampton Town Ativo 125 / 125 40% 1 26.05.2028 -
Sergio Arribas Rayo Vallecano Ativo 137 / 144 40% 1 24.05.2028 -
Omar El Hilali Espanyol Ativo 158 / 156 40% 2 23.05.2028 -
Désiré Doué Stade Brestois Ativo 159 / 173 40% 2 22.05.2028 -
Emile Smith Rowe Cardiff City Ativo 160 / 156 40% 4 22.05.2028 -
Ilias Akhomach Athletic Bilbao Ativo 146 / 146 40% 4 21.05.2028 -
Kang-In Lee Villarreal Ativo 165 / 154 40% 2 21.05.2028 -
David Larrubia Málaga Ativo 134 / 141 40% 3 20.05.2028 -
Ramón Terrats Getafe Ativo 150 / 152 40% 1 20.05.2028 -
Luka Sučić Andorra Ativo 149 / 144 40% 1 20.05.2028 -
André Almeida Valencia Ativo 149 / 146 40% 1 19.05.2028 -
Aimar Osasuna Ativo 151 / 145 40% 6 18.05.2028 -
Malick Fofana Sunderland Ativo 150 / 155 40% 1 18.05.2028 -
Miguel Rodríguez Alavés Ativo 131 / 134 40% 1 17.05.2028 -
Celías Ingenthron Platense Ativo 127 / 132 40% 1 17.05.2028 -
Augusto Bando Ascoli Ativo 105 / 110 40% 1 17.05.2028 -
Jaden Philogene Wolverhampton Ativo 142 / 148 40% 2 14.05.2028 -
Nico Melamed Almería Ativo 137 / 134 40% 1 14.05.2028 -
Pau Cubarsí Real Sociedad Ativo 155 / 161 40% 3 13.05.2028 -
Andrés Martín Racing Santander Ativo 137 / 144 40% 1 13.05.2028 -
Josh Nichols Oldham Athletic Ativo 123 / 121 40% 1 13.05.2028 -
Riquelme Thompson-Jones Accrington Stanley Ativo 103 / 108 40% 1 10.05.2028 -
Tobiáš Pališčák Zlin Ativo 103 / 99 40% 2 08.05.2028 -
Félix Correia LOSC Lille Ativo 139 / 140 40% 1 08.05.2028 -
Jonathan Dubasin Osasuna Ativo 149 / 145 40% 4 05.05.2028 -
Íñigo Vicente Racing Santander Ativo 130 / 135 40% 1 05.05.2028 -
Ismaïla Sarr Crystal Palace Ativo 149 / 147 40% 2 04.05.2028 -
Antony Betis Ativo 154 / 159 40% 1 04.05.2028 -
Oihan Sancet Athletic Bilbao Ativo 161 / 163 40% 4 03.05.2028 -
Jorge Salinas Racing Santander Ativo 137 / 141 40% 1 02.05.2028 -
Marc Bernal Sevilla Ativo 148 / 159 40% 1 30.04.2028 -
Héctor Fort Real Sociedad Ativo 139 / 153 40% 1 30.04.2028 -
Ademola Lookman Atlético Madrid Ativo 166 / 157 40% 1 27.04.2028 -
Samuel Edozie Southampton Ativo 129 / 138 40% 1 26.04.2028 -
Mikel Jauregizar Athletic Bilbao Ativo 167 / 163 40% 1 25.04.2028 -
Josh Acheampong Everton Ativo 136 / 154 40% 1 25.04.2028 -
João Simões Sporting CP Ativo 132 / 135 40% 1 24.04.2028 -
Roberto Fernández Braga Ativo 145 / 141 40% 2 22.04.2028 -
Ryunosuke Sato Eibar Ativo 132 / 134 40% 1 21.04.2028 -
Lucas Høgsberg RC Strasbourg Ativo 139 / 143 40% 1 19.04.2028 -
Ben Gannon Doak Charlton Athletic Ativo 148 / 147 40% 2 16.04.2028 -
Antonio Blanco Alavés Ativo 146 / 152 40% 2 12.04.2028 -
Pablo Torre Mallorca Ativo 146 / 156 40% 2 10.04.2028 -
Jaidon Anthony Derby County Ativo 141 / 141 40% 2 09.04.2028 -
Ez Abde Betis Ativo 155 / 151 40% 1 04.04.2028 -
Mikkel Damsgaard Brentford Ativo 162 / 156 40% 1 02.04.2028 -
Pote Sporting CP Ativo 159 / 163 40% 1 31.03.2028 -
Javi Puado Espanyol Ativo 157 / 154 40% 1 27.03.2028 -
Christantus Uche Getafe Ativo 138 / 148 40% 1 24.03.2028 -
Tyrhys Dolan Espanyol Ativo 150 / 142 40% 1 21.03.2028 -
Thiago Almada LOSC Lille Ativo 159 / 149 40% 1 21.03.2028 -
Geny Sporting CP Ativo 155 / 156 40% 1 20.03.2028 -
Zito Luvumbo Cagliari Ativo 139 / 134 40% 1 19.03.2028 -
Nicolás Castro Toluca Ativo 135 / 137 40% 1 18.03.2028 Mais informações
Danilo Botafogo Ativo 157 / 137 40% 1 31.12.2027 -
Alexandro Bernabei Internacional Ativo 130 / 138 40% 1 31.12.2027 -
Anthony Lozano Santos Laguna Ativo 131 / 133 51% 1 12.07.2027 -
Ben Sheaf Wrexham Ativo 144 / 125 40% 1 06.07.2027 -
Jordan Pickford Everton Ativo 153 / 152 40% 1 28.06.2027 -
Ismael Díaz Leon Ativo 138 / 134 51% 1 21.06.2027 -
Emiliano Martínez Chelsea Ativo 167 / 156 40% 1 18.06.2027 -
Aune Heggebø West Bromwich Albion Ativo 131 / 120 40% 5 29.05.2027 -
Ivo Mammini Beitar Jerusalem Ativo 111 / 122 40% 4 29.05.2027 -
Shea Charles Southampton Ativo 130 / 133 40% 1 29.05.2027 -
Kamory Doumbia Stade Brestois Ativo 139 / 134 40% 1 27.05.2027 -
Jordan Zemura Udinese Ativo 136 / 138 40% 2 25.05.2027 -
Hicham Boudaoui OGC Nice Ativo 133 / 138 40% 1 25.05.2027 -
Tommaso Pobega Bologna Ativo 133 / 142 40% 4 24.05.2027 -
Lamine Camara Monaco Ativo 145 / 138 40% 2 24.05.2027 -
Kévin Danois AJ Auxerre Ativo 125 / 143 40% 6 23.05.2027 -
Adrián Bernabé Parma Ativo 131 / 133 40% 2 22.05.2027 -
Jackson Muleka Konyaspor Ativo 111 / 134 40% 2 21.05.2027 -
Tyrese Campbell Sheffield United Ativo 121 / 125 40% 8 21.05.2027 -
Sam Bell Bristol City Ativo 128 / 127 40% 2 20.05.2027 -
Sidny Lopes Cabral Trabzonspor Ativo 117 / 127 40% 3 19.05.2027 -
Malik Mothersille Stockport County Ativo 111 / 120 40% 1 19.05.2027 -
Yousef Salech Cardiff City Ativo 124 / 118 40% 3 17.05.2027 -
Cristian Cásseres Toulouse FC Ativo 128 / 132 40% 1 17.05.2027 -
Oh Hyeon-Gyu Besiktas Ativo 143 / 109 40% 4 14.05.2027 -
Ekain Orobengoa Real Sociedad Ativo 99 / 100 40% 1 14.05.2027 -
Rafael Navarro Famalicao Ativo 129 / 120 40% 2 12.05.2027 -
Víctor Gómez Braga Ativo 144 / 137 40% 3 11.05.2027 -
Unai Gómez Udinese Ativo 147 / 134 40% 3 11.05.2027 -
Sergi Altimira Sporting CP Ativo 148 / 134 40% 4 07.05.2027 -
Bradley Locko Stade Brestois Ativo 131 / 137 40% 1 07.05.2027 -
Marezi Portsmouth Ativo 125 / 131 40% 1 03.05.2027 -
Caleb Yirenkyi Coventry City Ativo 141 / 143 40% 2 02.05.2027 -
Ngal'Ayel Mukau LOSC Lille Ativo 143 / 135 40% 5 02.05.2027 -
Yunus Akgün Galatasaray Ativo 138 / 139 40% 5 01.05.2027 -
Iván Fresneda Sporting CP Ativo 141 / 151 40% 4 29.04.2027 -
Gabriel Sara Galatasaray Ativo 129 / 146 40% 2 26.04.2027 -
Stephen Amankona Aduana Stars Ativo 115 / 83 40% 1 21.04.2027 -
Dale Taylor Blackpool Ativo 122 / 120 40% 2 20.04.2027 -
Wilfried Singo Galatasaray Ativo 139 / 154 40% 3 19.04.2027 -
Josh Coburn Millwall Ativo 113 / 116 40% 2 17.04.2027 -
Ernest Muçi Trabzonspor Ativo 124 / 132 40% 1 17.04.2027 -
Samson Baidoo RC Lens Ativo 140 / 146 40% 1 14.04.2027 -
Caspar Jander Southampton Ativo 120 / 126 40% 1 12.04.2027 -
Milan van Ewijk Coventry City Ativo 142 / 125 40% 1 12.04.2027 -
Timothy Witsel FC Metz Ativo 129 / 130 40% 1 11.04.2027 -
Tariq Lamptey Queens Park Rangers Ativo 140 / 126 40% 1 08.04.2027 -
Mario Dorgeles Braga Ativo 133 / 131 40% 2 07.04.2027 -
Ilyas Ansah Hull City Ativo 127 / 135 40% 3 03.04.2027 -
Sergi Cardona KAA Gent Ativo 152 / 149 40% 2 01.04.2027 -
Quentin Merlin Stade Rennais Ativo 139 / 128 40% 1 30.03.2027 -
Wandile Duba ASO Chlef Ativo 122 / 101 40% 1 28.03.2027 -
Andrea Colpani Monza Ativo 137 / 141 40% 4 24.03.2027 -
Théodore Lefèvre Tours Ativo 124 / 123 40% 1 22.03.2027 -
Habib Diarra Sunderland Ativo 150 / 143 40% 1 21.03.2027 -
Samuel Dahl Benfica Ativo 141 / 139 40% 2 18.03.2027 -
Lorent Tolaj Plymouth Argyle Ativo 128 / 116 40% 1 17.03.2027 -
Duk Atlas Ativo 118 / 122 40% 1 07.03.2027 -
Gustavo Silva Vitoria Guimaraes Ativo 138 / 127 40% 1 05.03.2027 -
Majid Moharrami Rah Ahan Ativo 112 / 111 40% 3 03.03.2027 -
Mattéo Guendouzi Fenerbahce Ativo 141 / 153 40% 1 02.03.2027 -
Luis Caicedo Spartak 1918 Ativo 99 / 88 40% 1 24.02.2027 -
Pedro Henrique Shakhtar Ativo 133 / 129 40% 1 18.02.2027 -
Sorriso Famalicao Ativo 123 / 134 40% 1 16.02.2027 -
Lucas Varaldo Morelia Ativo 117 / 126 40% 1 12.02.2027 -
Gustavo Mantuan Zenit Ativo 122 / 130 40% 2 09.02.2027 -
Brayan Gil Baltika Ativo 123 / 121 40% 1 07.02.2027 -
Maxim Glushenkov Zenit Ativo 134 / 134 40% 1 28.01.2027 -
Jhon Jhon Zenit Ativo 141 / 133 40% 1 28.01.2027 -
Jens Petter Hauge Bodo/Glimt Ativo 146 / 123 40% 1 25.01.2027 -
Mamadou Sangaré Brentford Ativo 141 / 133 40% 1 18.01.2027 -
Joe Gelhardt Hull City Ativo 130 / 127 40% 1 16.01.2027 -
Enrico Delprato Parma Ativo 137 / 144 40% 1 03.01.2027 -
Nicolò Fagioli Fiorentina Ativo 137 / 139 40% 1 01.01.2027 -
Leroy Sané Galatasaray Ativo 149 / 163 40% 1 01.08.2026 -